Aérodrome :
LOGIN :

S'inscrire | Disclaimer

   EN    FR    IT 

 










Légende :    VFR   VFR Marginal   IFR   IFR Intensif   IFR Très Intensif
Visi : 
Plafond : 
>= 8 km
>= 3000ft
5 à 8 km
1000 à 3000 ft
1500m à 5 km
500 à 1000 ft
800 à 1500m
200 à 500 ft
< 800m
< 200 ft
Symboles :   Orages  Brouillard  Fortes neiges  Fortes précipitations  Vent > 20 kt
SIGMETs :   Divers  Orages  Givrage  Turbulence  Onde Orograph.  Cendres Volcan.







- Altitude de l'aérodrome : 791 ft
- Code IATA : KRK


EPKK - Krakow-Balice

DERNIER METAR :
  • 221630Z 24006KT 6000 NSC 07/05 Q1024

METARs EXPIRÉS :
  • 221600Z 23007KT 8000 NSC 08/06 Q1023
  • 221530Z 21007KT 8000 NSC 09/06 Q1023
  • 221500Z 22008KT 8000 NSC 10/06 Q1023
  • 221430Z 21006KT CAVOK 11/06 Q1023
  • 221400Z 22004KT 180V250 CAVOK 12/06 Q1023

TAF TAF EPKK
Valide du 22 à 15h jusqu'au 23 à 15h UTC


221430Z 2215/2315 VRB02KT CAVOK
BECMG 2215/2218 24010KT
TEMPO 2220/2306 3000 RA BKN008
TEMPO 2310/2315 26020G35KT
Pas de NOTAMs connus pour ce terrain.



MET'MAP, la Météo Aéronautique d'un coup d'oeil ! - Copyright ORBIFLY Décembre 2007 - Disclaimer

ORBIFLY MET'MAP TEAM :

Programmation & Développement : Alexandra Zaïnal
Conception & Développement : Baudouin d'Aumeries
Co-Programmation & Développement : Marc-Olivier Méhu
Soutien technique & logistique : Manuel Goepfert

Contact : metmap@orbifly.com




SOURCES & CREDITS :

   NOAA